Weather History for Monroe, WI

Change the Weather History Date:

Saturday, February 23, 2013

  Actual Average Record
Temperature  
Mean Temperature 24 °F -  
Max Temperature 28 °F 0 °F 48 °F (2002)
Min Temperature 19 °F - 6 °F (2001)
Degree Days  
Heating Degree Days 42    
Moisture  
Dew Point 19 °F    
Average Humidity 81    
Maximum Humidity 100    
Minimum Humidity 64    
Precipitation  
Precipitation 0.00 in - - ()
Sea Level Pressure  
Sea Level Pressure 29.87 in    
Wind  
Wind Speed 14 mph (WSW)    
Max Wind Speed 18 mph    
Max Gust Speed 21 mph    
Visibility 10 miles    
Events Snow    
Averages and records for this station are not official NWS values.
T = Trace of Precipitation, MM = Missing Value Source: NWS Daily Summary

Daily Weather History Graph

Daily Weather History Graph

Search for Another Location

Airport:

Trip Planner

Search our weather history database for the weather conditions in past years. The results will help you decide how hot, cold, wet, or windy it might be!

Date:

Astronomy

Feb. 23, 2013 Rise Set
Actual Time 6:43 AM CST 5:40 PM CST
Civil Twilight 6:14 AM CST 6:09 PM CST
Nautical Twilight 5:41 AM CST 6:42 PM CST
Astronomical Twilight 5:09 AM CST 7:14 PM CST
Moon 3:49 PM CST (2/23) 5:07 AM CST (2/23)
Length of Visible Light 11h 54m
Length of Day
10h 57m
Waxing Gibbous, 95% of the Moon is Illuminated
Feb 23
Waxing Gibbous
Feb 25
Full
Mar 4
Last Quarter
Mar 11
New
Mar 19
First Quarter

Hourly Weather History & Observations

Time (CST) Temp. Windchill Dew Point Humidity Pressure Visibility Wind Dir Wind Speed Gust Speed Precip Events Conditions
12:15 AM 26.6 °F 15.7 °F 26.6 °F 100% 29.84 in 10.0 mi WSW 12.7 mph - N/A   Overcast
12:35 AM 26.6 °F 15.2 °F 26.6 °F 100% 29.84 in 10.0 mi WSW 13.8 mph - N/A   Overcast
12:55 AM 26.6 °F 15.2 °F 24.8 °F 93% 29.84 in 10.0 mi WSW 13.8 mph - N/A   Overcast
1:15 AM 26.6 °F 14.3 °F 24.8 °F 93% 29.85 in 10.0 mi WSW 16.1 mph - N/A   Overcast
1:35 AM 26.6 °F 15.2 °F 24.8 °F 93% 29.84 in 10.0 mi WSW 13.8 mph - N/A   Overcast
1:55 AM 26.6 °F 15.2 °F 24.8 °F 93% 29.85 in 10.0 mi WSW 13.8 mph - N/A   Overcast
2:15 AM 24.8 °F 12.4 °F 23.0 °F 93% 29.84 in 10.0 mi WSW 15.0 mph - N/A   Overcast
2:35 AM 24.8 °F 12.4 °F 23.0 °F 93% 29.84 in 7.0 mi WSW 15.0 mph - N/A Snow Light Snow
3:15 AM 23.0 °F 10.6 °F 23.0 °F 100% 29.84 in 10.0 mi WSW 13.8 mph - N/A   Overcast
3:35 AM 23.0 °F 9.6 °F 23.0 °F 100% 29.84 in 10.0 mi WSW 16.1 mph - N/A Snow Light Snow
3:55 AM 23.0 °F 10.1 °F 23.0 °F 100% 29.84 in 10.0 mi WSW 15.0 mph - N/A Snow Light Snow
4:15 AM 23.0 °F 9.6 °F 23.0 °F 100% 29.84 in 7.0 mi WSW 16.1 mph 20.7 mph N/A Snow Light Snow
4:35 AM 23.0 °F 10.6 °F 23.0 °F 100% 29.85 in 10.0 mi WSW 13.8 mph - N/A Snow Light Snow
4:55 AM 23.0 °F 8.7 °F 23.0 °F 100% 29.85 in 10.0 mi WSW 18.4 mph - N/A Snow Light Snow
5:15 AM 23.0 °F 10.1 °F 23.0 °F 100% 29.85 in 10.0 mi WSW 15.0 mph - N/A Snow Light Snow
5:35 AM 23.0 °F 10.6 °F 21.2 °F 93% 29.85 in 10.0 mi WSW 13.8 mph - N/A   Overcast
5:55 AM 23.0 °F 10.6 °F 21.2 °F 93% 29.86 in 10.0 mi WSW 13.8 mph - N/A   Overcast
6:15 AM 23.0 °F 10.1 °F 21.2 °F 93% 29.86 in 10.0 mi SW 15.0 mph - N/A   Overcast
6:35 AM 23.0 °F 9.2 °F 21.2 °F 93% 29.87 in 10.0 mi SW 17.3 mph - N/A   Overcast
6:55 AM 23.0 °F 10.6 °F 21.2 °F 93% 29.86 in 10.0 mi SW 13.8 mph - N/A   Overcast
7:15 AM 21.2 °F 8.3 °F 21.2 °F 100% 29.87 in 10.0 mi SW 13.8 mph - N/A   Overcast
7:35 AM 21.2 °F 7.3 °F 21.2 °F 100% 29.86 in 10.0 mi SW 16.1 mph - N/A   Overcast
7:55 AM 21.2 °F 7.3 °F 21.2 °F 100% 29.86 in 10.0 mi WSW 16.1 mph 19.6 mph N/A   Overcast
8:15 AM 21.2 °F 8.3 °F 19.4 °F 93% 29.87 in 10.0 mi WSW 13.8 mph 20.7 mph N/A   Overcast
8:35 AM 23.0 °F 10.6 °F 19.4 °F 86% 29.87 in 10.0 mi WSW 13.8 mph - N/A Snow Light Snow
8:55 AM 23.0 °F 10.1 °F 19.4 °F 86% 29.87 in 10.0 mi WSW 15.0 mph - N/A   Overcast
9:15 AM 23.0 °F 10.6 °F 19.4 °F 86% 29.87 in 10.0 mi WSW 13.8 mph - N/A Snow Light Snow
9:35 AM 23.0 °F 10.1 °F 19.4 °F 86% 29.87 in 10.0 mi SW 15.0 mph - N/A   Overcast
9:55 AM 23.0 °F 10.6 °F 17.6 °F 80% 29.87 in 10.0 mi WSW 13.8 mph - N/A Snow Light Snow
10:15 AM 23.0 °F 10.1 °F 17.6 °F 80% 29.88 in 10.0 mi WSW 15.0 mph - N/A Snow Light Snow
10:35 AM 24.8 °F 11.9 °F 17.6 °F 74% 29.88 in 10.0 mi WSW 16.1 mph - N/A   Overcast
10:55 AM 24.8 °F 11.5 °F 17.6 °F 74% 29.88 in 10.0 mi WSW 17.3 mph - N/A   Overcast
11:15 AM 26.6 °F 15.7 °F 17.6 °F 69% 29.88 in 10.0 mi WSW 12.7 mph - N/A   Overcast
11:35 AM 26.6 °F 15.2 °F 17.6 °F 69% 29.88 in 10.0 mi WSW 13.8 mph - N/A   Overcast
11:55 AM 26.6 °F 14.3 °F 17.6 °F 69% 29.88 in 10.0 mi WSW 16.1 mph - N/A   Overcast
12:15 PM 28.4 °F 17.0 °F 19.4 °F 69% 29.87 in 10.0 mi WSW 15.0 mph - N/A   Overcast
12:35 PM 28.4 °F 16.2 °F 17.6 °F 64% 29.86 in 10.0 mi West 17.3 mph - N/A   Scattered Clouds
12:55 PM 28.4 °F 17.0 °F 19.4 °F 69% 29.86 in 10.0 mi WSW 15.0 mph - N/A   Mostly Cloudy
1:15 PM 28.4 °F 17.5 °F 17.6 °F 64% 29.86 in 10.0 mi WSW 13.8 mph - N/A   Overcast
1:35 PM 28.4 °F 18.0 °F 17.6 °F 64% 29.86 in 10.0 mi WSW 12.7 mph - N/A   Overcast
1:55 PM 28.4 °F 17.0 °F 17.6 °F 64% 29.86 in 10.0 mi WSW 15.0 mph - N/A   Mostly Cloudy
2:15 PM 28.4 °F 18.0 °F 17.6 °F 64% 29.85 in 10.0 mi WSW 12.7 mph 17.3 mph N/A   Mostly Cloudy
2:35 PM 28.4 °F 18.0 °F 19.4 °F 69% 29.86 in 10.0 mi WSW 12.7 mph - N/A   Scattered Clouds
2:55 PM 28.4 °F 18.0 °F 19.4 °F 69% 29.85 in 10.0 mi WSW 12.7 mph - N/A   Clear
3:15 PM 28.4 °F 17.0 °F 17.6 °F 64% 29.86 in 10.0 mi WSW 15.0 mph - N/A   Clear
3:35 PM 28.4 °F 17.0 °F 17.6 °F 64% 29.86 in 10.0 mi WSW 15.0 mph - N/A   Clear
3:55 PM 28.4 °F 16.6 °F 17.6 °F 64% 29.86 in 10.0 mi WSW 16.1 mph - N/A   Clear
4:15 PM 28.4 °F 16.6 °F 17.6 °F 64% 29.86 in 10.0 mi WSW 16.1 mph - N/A   Clear
4:35 PM 28.4 °F 18.5 °F 17.6 °F 64% 29.86 in 10.0 mi WSW 11.5 mph - N/A   Clear
4:55 PM 26.6 °F 16.2 °F 17.6 °F 69% 29.86 in 10.0 mi West 11.5 mph - N/A   Clear
5:15 PM 26.6 °F 16.8 °F 17.6 °F 69% 29.87 in 10.0 mi West 10.4 mph - N/A   Clear
5:35 PM 24.8 °F 15.3 °F 15.8 °F 69% 29.88 in 10.0 mi WSW 9.2 mph - N/A   Clear
5:55 PM 24.8 °F 14.0 °F 17.6 °F 74% 29.88 in 10.0 mi WSW 11.5 mph - N/A   Clear
6:15 PM 23.0 °F 13.1 °F 17.6 °F 80% 29.89 in 10.0 mi WSW 9.2 mph - N/A   Clear
6:55 PM 23.0 °F 10.6 °F 15.8 °F 74% 29.90 in 10.0 mi WSW 13.8 mph - N/A   Scattered Clouds
7:15 PM 24.8 °F 13.4 °F 15.8 °F 69% 29.90 in 10.0 mi WSW 12.7 mph - N/A   Overcast
7:35 PM 23.0 °F 11.1 °F 15.8 °F 74% 29.90 in 10.0 mi WSW 12.7 mph - N/A   Overcast
7:55 PM 23.0 °F 11.7 °F 15.8 °F 74% 29.91 in 10.0 mi WSW 11.5 mph - N/A   Overcast
8:15 PM 23.0 °F 11.7 °F 15.8 °F 74% 29.91 in 10.0 mi WSW 11.5 mph - N/A   Overcast
8:35 PM 23.0 °F 11.7 °F 15.8 °F 74% 29.91 in 10.0 mi WSW 11.5 mph - N/A   Overcast
9:15 PM 23.0 °F 11.1 °F 15.8 °F 74% 29.92 in 10.0 mi West 12.7 mph - N/A   Overcast
9:35 PM 21.2 °F 8.9 °F 14.0 °F 74% 29.92 in 10.0 mi West 12.7 mph - N/A   Mostly Cloudy
10:35 PM 21.2 °F 8.9 °F 14.0 °F 74% 29.91 in 10.0 mi West 12.7 mph - N/A   Clear
10:55 PM 21.2 °F 8.9 °F 14.0 °F 74% 29.92 in 10.0 mi West 12.7 mph - N/A   Clear
11:15 PM 19.4 °F 7.2 °F 15.8 °F 86% 29.92 in 10.0 mi West 11.5 mph - N/A   Clear
11:35 PM 19.4 °F 6.6 °F 17.6 °F 93% 29.92 in 10.0 mi West 12.7 mph - N/A   Clear
11:55 PM 19.4 °F 6.6 °F 17.6 °F 93% 29.92 in 10.0 mi West 12.7 mph - N/A   Clear